Oost-Vlieland, Netherlands

12:50 PM CEST on July 23, 2016 (GMT +0200)
Vlieland | | Change Station

Elev 36 ft 53.24 °N, 4.92 °E | Updated 25 minutes ago

Overcast
Overcast
66 °F
Feels Like 66 °F
N
12
Wind Variable Wind from NNE

Today
High -- | Low -- °F
--% Chance of Precip.
Yesterday
High -- | Low -- °F
Precip. -- in
Pressure 30.12 in
Visibility 6.2 miles
Clouds Overcast 1100 ft
Dew Point 61 °F
Humidity 83%
Rainfall 0.00 in
Snow Depth Not available.
5:43 AM 9:49 PM
Waning Gibbous, 86% visible
METAR EHVL 231025Z AUTO 02010KT 9999 OVC011 19/16 Q1020 GRN
Pressure 30.12 in
Visibility 6.2 miles
Clouds Overcast 1100 ft
Dew Point 61 °F
Humidity 83%
Rainfall 0.00 in
Snow Depth Not available.
5:43 AM 9:49 PM
Waning Gibbous, 86% visible
METAR EHVL 231025Z AUTO 02010KT 9999 OVC011 19/16 Q1020 GRN

10-Day Weather Forecast

×

Almanac

Astronomy

Jul. 23, 2016 Rise Set
Actual Time
Civil Twilight
Nautical Twilight
Astronomical Twilight
Moon
Length of Visible Light
Length of Day
Tomorrow will be .
, % of the Moon is Illuminated

Today's Extremes

Country Highs Country Lows

Community

WunderPhotos

Upload Photos

1,926,793 photos uploaded!

WunderBlog® & News

Nearby

Air Quality

  Air Quality AQ Index Pollutant
Not available.

Snow Depth

Station Depth Elevation

Earthquake Activity

City Distance Mag. Time & Date
Minimum magnitude displayed is 2.5.

Coastal Water Temperatures

Place Temperature

Stations

Nearby Weather Stations

Station Location Temp. Windchill Dew Point Humidity Wind Precip. Elev Updated Type